Time;durP1;ratioP1;P1;durP2;ratioP2;P2;SDS_P1;SDS_P2;PMS_P1;PMS_P2;Temp;Humidity;BMP_temperature;BMP_pressure;BME280_temperature;BME280_humidity;BME280_pressure;Samples;Min_cycle;Max_cycle;Signal;HPM_P1;HPM_P2
2022/05/10 00:00:58;;;;;;;;;;;23.70;45.00;;;;;;6177877;28;20051;-51
2022/05/10 00:04:00;;;;;;;;;;;23.50;44.90;;;;;;6185368;28;19955;-53
2022/05/10 00:07:02;;;;;;;;;;;23.60;44.90;;;;;;6154663;28;20060;-56
2022/05/10 00:10:04;;;;;;;;;;;23.40;44.80;;;;;;6186470;28;19929;-56
2022/05/10 00:13:07;;;;;;;;;;;23.80;45.10;;;;;;6172819;28;19941;-55
2022/05/10 00:16:09;;;;;;;;;;;23.70;45.00;;;;;;6187872;28;19936;-55
2022/05/10 00:19:15;;;;;;;;;;;23.50;44.90;;;;;;6188965;28;19929;-55
2022/05/10 00:22:17;;;;;;;;;;;23.50;45.00;;;;;;6189664;28;20890;-54
2022/05/10 00:25:21;;;;;;;;;;;23.70;45.00;;;;;;6189689;28;19926;-55
2022/05/10 00:28:22;;;;;;;;;;;23.40;44.90;;;;;;6171079;28;19937;-52
2022/05/10 00:31:24;;;;;;;;;;;23.70;45.10;;;;;;6188614;28;20016;-54
2022/05/10 00:34:28;;;;;;;;;;;23.70;45.10;;;;;;6182081;28;19929;-55
2022/05/10 00:37:31;;;;;;;;;;;23.60;45.00;;;;;;6192433;28;20014;-54
2022/05/10 00:40:33;;;;;;;;;;;23.60;45.00;;;;;;6177084;28;20056;-55
2022/05/10 00:43:36;;;;;;;;;;;23.70;45.10;;;;;;6190291;28;19929;-53
2022/05/10 00:46:40;;;;;;;;;;;23.60;45.10;;;;;;6163556;28;20779;-54
2022/05/10 00:49:46;;;;;;;;;;;23.60;45.00;;;;;;6185382;28;20751;-57
2022/05/10 00:52:51;;;;;;;;;;;23.50;45.00;;;;;;6175690;28;19964;-57
2022/05/10 00:55:56;;;;;;;;;;;23.50;45.00;;;;;;6168444;28;20790;-53
2022/05/10 00:59:01;;;;;;;;;;;23.50;45.00;;;;;;6185440;28;20018;-56
2022/05/10 01:02:07;;;;;;;;;;;23.80;45.20;;;;;;6183712;28;19936;-56
2022/05/10 01:05:14;;;;;;;;;;;23.70;45.10;;;;;;6184201;28;19936;-54
2022/05/10 01:08:18;;;;;;;;;;;23.60;45.10;;;;;;6185921;28;19929;-53
2022/05/10 01:11:24;;;;;;;;;;;23.80;45.20;;;;;;6167005;28;19936;-56
2022/05/10 01:14:28;;;;;;;;;;;23.60;45.10;;;;;;6187438;28;20115;-54
2022/05/10 01:17:30;;;;;;;;;;;23.50;45.00;;;;;;6177246;28;19936;-54
2022/05/10 01:20:35;;;;;;;;;;;23.60;45.10;;;;;;6185285;28;19929;-55
2022/05/10 01:23:51;;;;;;;;;;;23.30;45.00;;;;;;6187359;28;20857;-55
2022/05/10 01:26:59;;;;;;;;;;;23.90;45.30;;;;;;6169477;28;20796;-53
2022/05/10 01:30:04;;;;;;;;;;;23.30;45.00;;;;;;6183472;28;19928;-54
2022/05/10 01:36:27;;;;;;;;;;;23.20;45.00;;;;;;6165777;28;20041;-54
2022/05/10 01:39:30;;;;;;;;;;;23.60;45.20;;;;;;6176812;28;19936;-54
2022/05/10 01:42:34;;;;;;;;;;;23.60;45.20;;;;;;6164239;28;19936;-57
2022/05/10 01:45:38;;;;;;;;;;;23.60;45.20;;;;;;6166786;28;19936;-54
2022/05/10 01:48:41;;;;;;;;;;;23.30;45.10;;;;;;6185312;28;19933;-56
2022/05/10 01:51:45;;;;;;;;;;;23.50;45.80;;;;;;6163604;28;19935;-56
2022/05/10 01:55:01;;;;;;;;;;;23.30;45.10;;;;;;6182034;28;20696;-54
2022/05/10 01:58:05;;;;;;;;;;;23.70;45.30;;;;;;6170862;28;19932;-53
2022/05/10 02:01:08;;;;;;;;;;;23.30;45.70;;;;;;6185114;28;21285;-56
2022/05/10 02:04:13;;;;;;;;;;;23.40;45.20;;;;;;6184004;28;19975;-52
2022/05/10 02:07:17;;;;;;;;;;;23.30;45.20;;;;;;6182670;28;19980;-53
2022/05/10 02:10:21;;;;;;;;;;;23.50;45.30;;;;;;6184864;28;20005;-56
2022/05/10 02:13:25;;;;;;;;;;;23.40;45.20;;;;;;6163613;28;20822;-54
2022/05/10 02:16:32;;;;;;;;;;;23.50;45.20;;;;;;6184501;28;19933;-54
2022/05/10 02:19:37;;;;;;;;;;;23.50;45.20;;;;;;6168090;28;19956;-55
2022/05/10 02:22:40;;;;;;;;;;;23.50;45.30;;;;;;6185704;28;19998;-51
2022/05/10 02:25:44;;;;;;;;;;;23.40;45.20;;;;;;6184082;28;19968;-55
2022/05/10 02:28:53;;;;;;;;;;;23.40;45.20;;;;;;6182827;28;19929;-53
2022/05/10 02:35:15;;;;;;;;;;;23.40;45.20;;;;;;6186436;28;19936;-52
2022/05/10 02:38:19;;;;;;;;;;;23.20;45.10;;;;;;6184962;28;19956;-54
2022/05/10 02:41:25;;;;;;;;;;;23.50;45.30;;;;;;6182801;28;19968;-56
2022/05/10 02:44:26;;;;;;;;;;;23.20;45.20;;;;;;6186185;28;19976;-54
2022/05/10 02:47:30;;;;;;;;;;;23.50;45.30;;;;;;6187717;28;20926;-53
2022/05/10 02:50:33;;;;;;;;;;;23.00;45.60;;;;;;6185434;28;19936;-54
2022/05/10 02:53:34;;;;;;;;;;;23.40;45.30;;;;;;6184942;28;19933;-55
2022/05/10 02:56:36;;;;;;;;;;;23.10;45.10;;;;;;6185842;28;21304;-55
2022/05/10 02:59:39;;;;;;;;;;;23.90;45.50;;;;;;6188162;28;19921;-53
2022/05/10 03:02:44;;;;;;;;;;;23.20;45.20;;;;;;6186210;28;19929;-54
2022/05/10 03:05:45;;;;;;;;;;;23.40;45.30;;;;;;6168540;28;19929;-55
2022/05/10 03:08:47;;;;;;;;;;;23.20;45.30;;;;;;6185222;28;19929;-55
2022/05/10 03:11:49;;;;;;;;;;;23.60;45.40;;;;;;6182414;28;19928;-53
2022/05/10 03:14:50;;;;;;;;;;;23.50;45.40;;;;;;6184532;28;19925;-53
2022/05/10 03:17:52;;;;;;;;;;;23.40;45.30;;;;;;6169303;28;19929;-57
2022/05/10 03:20:53;;;;;;;;;;;23.20;45.20;;;;;;6184145;28;21207;-55
2022/05/10 03:23:55;;;;;;;;;;;23.70;45.50;;;;;;6181480;28;19934;-53
2022/05/10 03:26:57;;;;;;;;;;;23.40;45.30;;;;;;6181591;28;19964;-52
2022/05/10 03:29:58;;;;;;;;;;;23.20;45.20;;;;;;6182646;28;20783;-53
2022/05/10 03:33:00;;;;;;;;;;;23.50;45.40;;;;;;6183031;28;21432;-54
2022/05/10 03:36:02;;;;;;;;;;;23.50;45.40;;;;;;6181876;28;19936;-51
2022/05/10 03:39:03;;;;;;;;;;;23.50;45.50;;;;;;6167696;28;19932;-56
2022/05/10 03:42:06;;;;;;;;;;;23.20;45.90;;;;;;6181930;28;19968;-51
2022/05/10 03:45:08;;;;;;;;;;;23.30;45.30;;;;;;6183323;28;19936;-54
2022/05/10 03:48:11;;;;;;;;;;;23.50;45.50;;;;;;6184565;28;19928;-54
2022/05/10 03:51:12;;;;;;;;;;;23.10;45.40;;;;;;6185312;28;19928;-55
2022/05/10 03:54:13;;;;;;;;;;;23.40;45.50;;;;;;6180055;28;19996;-54
2022/05/10 03:57:15;;;;;;;;;;;23.40;45.50;;;;;;6180138;28;20007;-51
2022/05/10 04:00:17;;;;;;;;;;;23.40;45.50;;;;;;6174355;28;20666;-52
2022/05/10 04:03:19;;;;;;;;;;;23.30;45.40;;;;;;6160421;28;19999;-53
2022/05/10 04:06:21;;;;;;;;;;;23.40;45.50;;;;;;6179230;28;20016;-53
2022/05/10 04:09:22;;;;;;;;;;;23.30;45.50;;;;;;6175501;28;19961;-53
2022/05/10 04:12:23;;;;;;;;;;;23.30;45.50;;;;;;6171081;28;19983;-55
2022/05/10 04:15:25;;;;;;;;;;;23.10;45.40;;;;;;6170854;28;20003;-54
2022/05/10 04:18:27;;;;;;;;;;;23.20;45.40;;;;;;6168462;28;19935;-54
2022/05/10 04:21:28;;;;;;;;;;;23.60;45.60;;;;;;6170807;28;20043;-53
2022/05/10 04:24:30;;;;;;;;;;;23.40;46.10;;;;;;6174238;28;19929;-51
2022/05/10 04:27:35;;;;;;;;;;;23.00;45.40;;;;;;6178169;28;19944;-52
2022/05/10 04:30:36;;;;;;;;;;;23.30;45.50;;;;;;6142561;28;19929;-53
2022/05/10 04:33:38;;;;;;;;;;;23.10;45.50;;;;;;6175653;28;19938;-54
2022/05/10 04:36:40;;;;;;;;;;;23.20;45.50;;;;;;6156076;28;19921;-54
2022/05/10 04:42:54;;;;;;;;;;;23.20;45.50;;;;;;6162535;28;19929;-51
2022/05/10 04:45:56;;;;;;;;;;;23.00;45.50;;;;;;6183495;28;19975;-51
2022/05/10 04:48:58;;;;;;;;;;;23.30;45.60;;;;;;6178698;28;19921;-53
2022/05/10 04:51:59;;;;;;;;;;;23.00;45.40;;;;;;6179430;28;19929;-52
2022/05/10 04:55:01;;;;;;;;;;;23.20;45.60;;;;;;6181918;28;19935;-53
2022/05/10 04:58:04;;;;;;;;;;;23.10;45.50;;;;;;6164811;28;19929;-54
2022/05/10 05:01:09;;;;;;;;;;;23.30;45.70;;;;;;6179600;28;19972;-49
2022/05/10 05:04:11;;;;;;;;;;;23.00;45.50;;;;;;6180014;28;20111;-53
2022/05/10 05:07:12;;;;;;;;;;;23.10;45.60;;;;;;6181179;28;19929;-52
2022/05/10 05:10:14;;;;;;;;;;;23.20;45.60;;;;;;6182937;28;20978;-53
2022/05/10 05:13:15;;;;;;;;;;;23.20;45.70;;;;;;6178579;28;19929;-56
2022/05/10 05:16:17;;;;;;;;;;;23.00;46.20;;;;;;6178608;28;19964;-51
2022/05/10 05:19:19;;;;;;;;;;;23.40;45.80;;;;;;6180559;28;19928;-50
2022/05/10 05:22:21;;;;;;;;;;;23.10;45.80;;;;;;6181616;28;20047;-55
2022/05/10 05:25:23;;;;;;;;;;;23.10;45.70;;;;;;6176598;28;19968;-56
2022/05/10 05:28:24;;;;;;;;;;;23.30;45.80;;;;;;6176277;28;19924;-53
2022/05/10 05:31:26;;;;;;;;;;;23.20;45.90;;;;;;6175267;28;19929;-54
2022/05/10 05:34:29;;;;;;;;;;;23.10;45.70;;;;;;6163661;28;20017;-54
2022/05/10 05:37:33;;;;;;;;;;;22.80;45.60;;;;;;6166230;28;19974;-53
2022/05/10 05:40:36;;;;;;;;;;;23.20;45.90;;;;;;6174832;28;19937;-51
2022/05/10 05:43:37;;;;;;;;;;;23.30;45.90;;;;;;6178532;28;19929;-54
2022/05/10 05:46:39;;;;;;;;;;;23.20;45.80;;;;;;6176880;28;19936;-53
2022/05/10 05:49:41;;;;;;;;;;;23.30;45.90;;;;;;6179061;28;20857;-53
2022/05/10 05:52:42;;;;;;;;;;;23.00;45.70;;;;;;6169039;28;19976;-53
2022/05/10 05:55:47;;;;;;;;;;;23.20;45.80;;;;;;6173346;28;21231;-55
2022/05/10 05:58:49;;;;;;;;;;;23.60;46.00;;;;;;6171887;28;20887;-53
2022/05/10 06:01:50;;;;;;;;;;;23.20;45.80;;;;;;6167809;28;20943;-51
2022/05/10 06:04:52;;;;;;;;;;;23.20;45.70;;;;;;6160920;28;19925;-54
2022/05/10 06:07:53;;;;;;;;;;;23.20;45.70;;;;;;6147397;28;20787;-55
2022/05/10 06:10:57;;;;;;;;;;;23.30;45.70;;;;;;6157848;28;19968;-54
2022/05/10 06:14:01;;;;;;;;;;;23.30;45.70;;;;;;6161686;28;19936;-53
2022/05/10 06:17:03;;;;;;;;;;;23.40;46.00;;;;;;6164717;28;19929;-52
2022/05/10 06:20:07;;;;;;;;;;;23.30;45.80;;;;;;6152279;28;19935;-50
2022/05/10 06:23:09;;;;;;;;;;;23.30;45.70;;;;;;6154661;28;19933;-51
2022/05/10 06:26:10;;;;;;;;;;;23.10;45.60;;;;;;6154291;28;19936;-52
2022/05/10 06:29:11;;;;;;;;;;;23.10;45.50;;;;;;6140118;28;20047;-52
2022/05/10 06:32:19;;;;;;;;;;;23.40;45.80;;;;;;6134630;28;20011;-50
2022/05/10 06:35:21;;;;;;;;;;;23.30;45.70;;;;;;6120843;28;20007;-50
2022/05/10 06:38:27;;;;;;;;;;;23.40;45.70;;;;;;6125802;28;20903;-53
2022/05/10 06:41:31;;;;;;;;;;;23.40;45.70;;;;;;6110199;28;19969;-51
2022/05/10 06:44:32;;;;;;;;;;;23.50;45.70;;;;;;6105369;28;19975;-51
2022/05/10 06:47:34;;;;;;;;;;;23.40;45.70;;;;;;6078442;28;19974;-55
2022/05/10 06:50:41;;;;;;;;;;;23.30;45.70;;;;;;6108754;28;19995;-54
2022/05/10 06:53:43;;;;;;;;;;;23.50;45.80;;;;;;6063147;28;22245;-52
2022/05/10 06:56:44;;;;;;;;;;;23.30;45.60;;;;;;6063319;28;21227;-51
2022/05/10 06:59:45;;;;;;;;;;;23.40;45.70;;;;;;6093330;28;19954;-53
2022/05/10 07:02:47;;;;;;;;;;;23.30;45.60;;;;;;6087875;28;19967;-54
2022/05/10 07:05:49;;;;;;;;;;;23.50;45.80;;;;;;6087442;28;20013;-51
2022/05/10 07:09:18;;;;;;;;;;;23.40;45.60;;;;;;6063896;28;19929;-53
2022/05/10 07:12:23;;;;;;;;;;;23.60;45.70;;;;;;6084188;28;19929;-50
2022/05/10 07:15:25;;;;;;;;;;;23.70;45.70;;;;;;6063351;28;19929;-51
2022/05/10 07:18:29;;;;;;;;;;;23.60;45.70;;;;;;6036842;28;19930;-55
2022/05/10 07:21:32;;;;;;;;;;;23.60;45.70;;;;;;5997795;28;20064;-52
2022/05/10 07:24:34;;;;;;;;;;;23.20;45.50;;;;;;6029106;28;19929;-52
2022/05/10 07:27:35;;;;;;;;;;;23.70;45.60;;;;;;6042786;28;20477;-53
2022/05/10 07:30:37;;;;;;;;;;;23.70;45.60;;;;;;6012867;28;19965;-54
2022/05/10 07:33:38;;;;;;;;;;;23.70;45.70;;;;;;5993098;28;20203;-52
2022/05/10 07:36:40;;;;;;;;;;;23.70;45.70;;;;;;6010851;28;20011;-53
2022/05/10 07:39:42;;;;;;;;;;;23.60;45.60;;;;;;6001057;28;19929;-51
2022/05/10 07:42:43;;;;;;;;;;;23.60;45.60;;;;;;6013396;28;19929;-52
2022/05/10 07:45:46;;;;;;;;;;;23.70;45.60;;;;;;6031971;28;19929;-51
2022/05/10 07:48:47;;;;;;;;;;;23.80;45.60;;;;;;5990896;28;19933;-54
2022/05/10 07:51:49;;;;;;;;;;;23.80;45.50;;;;;;6007802;28;20365;-55
2022/05/10 07:54:51;;;;;;;;;;;23.70;45.40;;;;;;5996853;28;20083;-57
2022/05/10 07:57:52;;;;;;;;;;;24.00;45.50;;;;;;6015049;28;20115;-53
2022/05/10 08:00:54;;;;;;;;;;;23.70;45.40;;;;;;6019236;28;20821;-54
2022/05/10 08:03:55;;;;;;;;;;;24.00;45.40;;;;;;6015877;28;21056;-59
2022/05/10 08:06:57;;;;;;;;;;;24.00;45.40;;;;;;5983418;28;22108;-55
2022/05/10 08:10:00;;;;;;;;;;;24.00;45.30;;;;;;5988616;28;20064;-50
2022/05/10 08:13:01;;;;;;;;;;;24.10;45.40;;;;;;6001934;28;20031;-52
2022/05/10 08:16:08;;;;;;;;;;;23.90;45.20;;;;;;6004902;28;19936;-50
2022/05/10 08:19:14;;;;;;;;;;;24.30;45.40;;;;;;6020786;28;20003;-51
2022/05/10 08:22:16;;;;;;;;;;;24.30;45.30;;;;;;6028736;28;20967;-53
2022/05/10 08:25:18;;;;;;;;;;;24.20;45.20;;;;;;6029197;28;21542;-55
2022/05/10 08:28:19;;;;;;;;;;;24.20;45.70;;;;;;6027425;28;21039;-54
2022/05/10 08:31:21;;;;;;;;;;;24.20;45.20;;;;;;6042233;28;19929;-51
2022/05/10 08:34:22;;;;;;;;;;;24.20;45.20;;;;;;6035369;28;19935;-52
2022/05/10 08:37:28;;;;;;;;;;;24.30;45.40;;;;;;6033424;28;19929;-50
2022/05/10 08:40:31;;;;;;;;;;;24.30;45.30;;;;;;6038435;28;20055;-59
2022/05/10 08:43:35;;;;;;;;;;;24.20;45.20;;;;;;6028916;28;19933;-49
2022/05/10 08:46:39;;;;;;;;;;;24.00;45.10;;;;;;6028495;28;19936;-53
2022/05/10 08:49:43;;;;;;;;;;;24.30;45.30;;;;;;6037557;28;31516;-50
2022/05/10 08:52:46;;;;;;;;;;;24.40;45.70;;;;;;6026349;28;20498;-55
2022/05/10 08:55:51;;;;;;;;;;;24.10;45.90;;;;;;6031389;28;21943;-51
2022/05/10 08:58:57;;;;;;;;;;;24.20;45.40;;;;;;6024529;28;19928;-59
2022/05/10 09:02:15;;;;;;;;;;;24.00;45.30;;;;;;5986487;28;36735;-49
2022/05/10 09:05:20;;;;;;;;;;;24.20;45.40;;;;;;6000246;28;21618;-53
2022/05/10 09:08:26;;;;;;;;;;;24.20;45.40;;;;;;6027213;28;20047;-51
2022/05/10 09:11:32;;;;;;;;;;;23.90;45.20;;;;;;5995507;28;20007;-50
2022/05/10 09:14:37;;;;;;;;;;;24.20;45.40;;;;;;6023908;28;20010;-50
2022/05/10 09:17:39;;;;;;;;;;;24.20;45.50;;;;;;6011777;28;19929;-47
2022/05/10 09:20:53;;;;;;;;;;;24.20;45.40;;;;;;6025771;28;19929;-48
2022/05/10 09:24:04;;;;;;;;;;;24.20;45.50;;;;;;6009276;28;19936;-50
2022/05/10 09:27:06;;;;;;;;;;;24.20;45.40;;;;;;6022213;28;21170;-52
2022/05/10 09:30:08;;;;;;;;;;;24.30;45.40;;;;;;6037028;28;19989;-51
2022/05/10 09:36:34;;;;;;;;;;;24.20;45.40;;;;;;6042261;28;19929;-50
2022/05/10 09:39:36;;;;;;;;;;;24.10;45.40;;;;;;6049519;28;21619;-48
2022/05/10 09:42:39;;;;;;;;;;;24.30;45.40;;;;;;6048517;28;21207;-52
2022/05/10 09:45:41;;;;;;;;;;;24.30;45.50;;;;;;6011573;28;21356;-55
2022/05/10 09:48:43;;;;;;;;;;;24.10;46.00;;;;;;6028639;28;21095;-50
2022/05/10 09:51:45;;;;;;;;;;;24.10;45.30;;;;;;6024962;28;23343;-49
2022/05/10 09:54:48;;;;;;;;;;;24.20;45.40;;;;;;6034101;28;20322;-53
2022/05/10 09:57:54;;;;;;;;;;;24.20;45.40;;;;;;6033294;28;19936;-53
2022/05/10 10:00:56;;;;;;;;;;;24.10;45.30;;;;;;6031813;28;20482;-52
2022/05/10 10:04:12;;;;;;;;;;;24.10;45.30;;;;;;5997943;28;21782;-48
2022/05/10 10:07:19;;;;;;;;;;;24.20;45.30;;;;;;6024670;28;36353;-51
2022/05/10 10:10:24;;;;;;;;;;;24.20;45.40;;;;;;6048573;28;22093;-52
2022/05/10 10:13:27;;;;;;;;;;;24.10;45.30;;;;;;6023503;28;19936;-50
2022/05/10 10:16:30;;;;;;;;;;;24.40;45.50;;;;;;6049472;28;21505;-55
2022/05/10 10:19:35;;;;;;;;;;;24.10;45.30;;;;;;6060966;28;19929;-51
2022/05/10 10:22:39;;;;;;;;;;;24.20;45.30;;;;;;6070118;28;19933;-52
2022/05/10 10:25:44;;;;;;;;;;;23.90;45.10;;;;;;6074353;28;20055;-51
2022/05/10 10:28:50;;;;;;;;;;;24.20;45.30;;;;;;6077908;28;21517;-48
2022/05/10 10:31:53;;;;;;;;;;;24.20;45.30;;;;;;6058099;28;20001;-50
2022/05/10 10:35:02;;;;;;;;;;;24.20;45.90;;;;;;6079652;28;20042;-52
2022/05/10 10:38:10;;;;;;;;;;;24.10;45.10;;;;;;6076316;28;20023;-49
2022/05/10 10:41:15;;;;;;;;;;;24.00;45.10;;;;;;6098654;28;19969;-53
2022/05/10 10:44:20;;;;;;;;;;;24.10;45.10;;;;;;6089991;28;19929;-51
2022/05/10 10:47:24;;;;;;;;;;;24.10;45.10;;;;;;6093677;28;19935;-52
2022/05/10 10:50:27;;;;;;;;;;;24.20;45.10;;;;;;6107556;28;19929;-46
2022/05/10 10:53:28;;;;;;;;;;;24.10;45.10;;;;;;6094635;28;19933;-49
2022/05/10 10:56:44;;;;;;;;;;;24.10;45.10;;;;;;6112846;28;20836;-50
2022/05/10 11:00:01;;;;;;;;;;;24.10;45.10;;;;;;6115453;28;19936;-50
2022/05/10 11:03:06;;;;;;;;;;;24.10;45.00;;;;;;6115048;28;19929;-48
2022/05/10 11:06:17;;;;;;;;;;;24.10;45.10;;;;;;6081425;28;19930;-49
2022/05/10 11:09:31;;;;;;;;;;;24.20;45.20;;;;;;6108025;28;22333;-46
2022/05/10 11:12:42;;;;;;;;;;;24.30;45.10;;;;;;6089403;28;19929;-52
2022/05/10 11:15:51;;;;;;;;;;;24.30;45.10;;;;;;6113245;28;19959;-48
2022/05/10 11:18:58;;;;;;;;;;;24.00;45.00;;;;;;6097823;28;20553;-52
2022/05/10 11:22:02;;;;;;;;;;;24.20;45.10;;;;;;6128289;28;19936;-49
2022/05/10 11:25:11;;;;;;;;;;;24.20;45.00;;;;;;6116678;28;19929;-52
2022/05/10 11:28:20;;;;;;;;;;;24.10;45.00;;;;;;6106480;28;19936;-49
2022/05/10 11:31:31;;;;;;;;;;;24.10;45.00;;;;;;6119664;28;19997;-49
2022/05/10 11:34:40;;;;;;;;;;;24.20;44.90;;;;;;6098743;28;19956;-48
2022/05/10 11:37:45;;;;;;;;;;;24.20;44.90;;;;;;6091351;28;19929;-51
2022/05/10 11:40:51;;;;;;;;;;;24.20;44.90;;;;;;6093496;28;21110;-50
2022/05/10 11:44:01;;;;;;;;;;;24.10;44.80;;;;;;6099982;28;22011;-49
2022/05/10 11:47:17;;;;;;;;;;;24.20;44.70;;;;;;6037631;28;20960;-50
2022/05/10 11:50:24;;;;;;;;;;;24.50;44.80;;;;;;6066464;28;19932;-48
2022/05/10 11:53:42;;;;;;;;;;;24.50;44.80;;;;;;6053876;28;20031;-51
2022/05/10 11:56:45;;;;;;;;;;;24.50;44.70;;;;;;6014106;28;19929;-53
2022/05/10 11:59:48;;;;;;;;;;;24.30;44.70;;;;;;6019018;28;20585;-51
2022/05/10 12:02:50;;;;;;;;;;;24.70;44.80;;;;;;6007191;28;19937;-52
2022/05/10 12:05:52;;;;;;;;;;;24.40;44.60;;;;;;5996009;28;19933;-55
2022/05/10 12:08:54;;;;;;;;;;;24.30;44.50;;;;;;6010794;28;20127;-53
2022/05/10 12:11:57;;;;;;;;;;;24.50;44.50;;;;;;6000170;28;20675;-52
2022/05/10 12:21:49;;;;;;;;;;;24.80;44.50;;;;;;6011358;28;20003;-51
2022/05/10 12:24:52;;;;;;;;;;;24.50;44.30;;;;;;6008312;28;20006;-53
2022/05/10 12:27:57;;;;;;;;;;;24.70;44.40;;;;;;6023761;28;19976;-53
2022/05/10 12:30:58;;;;;;;;;;;24.60;44.90;;;;;;6015705;28;27139;-51
2022/05/10 12:34:01;;;;;;;;;;;24.70;44.50;;;;;;6038907;28;20063;-55
2022/05/10 12:37:14;;;;;;;;;;;24.70;44.30;;;;;;6040911;28;19929;-55
2022/05/10 12:40:18;;;;;;;;;;;24.60;44.30;;;;;;6045387;28;19929;-51
2022/05/10 12:43:28;;;;;;;;;;;24.70;44.40;;;;;;6048670;28;34715;-51
2022/05/10 12:46:37;;;;;;;;;;;24.70;44.40;;;;;;6012686;28;19929;-50
2022/05/10 12:49:46;;;;;;;;;;;24.70;44.40;;;;;;6042398;28;19929;-54
2022/05/10 12:52:48;;;;;;;;;;;24.70;44.40;;;;;;6042124;28;20047;-52
2022/05/10 12:55:51;;;;;;;;;;;24.80;44.40;;;;;;6055409;28;19930;-52
2022/05/10 12:58:54;;;;;;;;;;;24.60;44.20;;;;;;6072887;28;21117;-51
2022/05/10 13:01:57;;;;;;;;;;;24.70;44.30;;;;;;6024687;28;19936;-51
2022/05/10 13:04:59;;;;;;;;;;;24.80;44.30;;;;;;6037224;28;19933;-53
2022/05/10 13:08:12;;;;;;;;;;;24.80;44.40;;;;;;6011280;28;20997;-52
2022/05/10 13:11:21;;;;;;;;;;;24.80;44.30;;;;;;6027329;28;19929;-53
2022/05/10 13:14:23;;;;;;;;;;;24.90;44.30;;;;;;6026916;28;19983;-53
2022/05/10 13:17:26;;;;;;;;;;;24.90;44.20;;;;;;5989937;28;21469;-53
2022/05/10 13:23:57;;;;;;;;;;;24.90;44.20;;;;;;6022641;28;20679;-53
2022/05/10 13:27:01;;;;;;;;;;;25.00;44.20;;;;;;5999036;28;19975;-50
2022/05/10 13:30:06;;;;;;;;;;;24.90;44.10;;;;;;6001141;28;19936;-55
2022/05/10 13:33:11;;;;;;;;;;;25.00;44.20;;;;;;6024056;28;19935;-51
2022/05/10 13:36:16;;;;;;;;;;;25.00;44.00;;;;;;6003871;28;19935;-51
2022/05/10 13:39:20;;;;;;;;;;;25.20;44.10;;;;;;6016573;28;21671;-49
2022/05/10 13:42:22;;;;;;;;;;;25.00;44.00;;;;;;6012656;28;19929;-54
2022/05/10 13:45:25;;;;;;;;;;;25.00;44.10;;;;;;5979816;28;19935;-48
2022/05/10 13:48:27;;;;;;;;;;;25.00;44.20;;;;;;5997561;28;19929;-50
2022/05/10 13:51:33;;;;;;;;;;;24.90;44.20;;;;;;5983977;28;20321;-51
2022/05/10 13:54:36;;;;;;;;;;;24.90;44.20;;;;;;5992753;28;19929;-53
2022/05/10 13:57:48;;;;;;;;;;;24.90;44.20;;;;;;5991167;28;19928;-48
2022/05/10 14:00:49;;;;;;;;;;;25.00;44.10;;;;;;5952765;28;20067;-49
2022/05/10 14:03:51;;;;;;;;;;;24.90;44.00;;;;;;5974872;28;19933;-50
2022/05/10 14:06:56;;;;;;;;;;;25.00;44.00;;;;;;5975352;28;21840;-51
2022/05/10 14:10:00;;;;;;;;;;;24.90;44.00;;;;;;5973996;28;19980;-52
2022/05/10 14:13:03;;;;;;;;;;;24.90;44.00;;;;;;5994925;28;19929;-49
2022/05/10 14:16:10;;;;;;;;;;;24.80;44.00;;;;;;5993516;28;22970;-47
2022/05/10 14:19:21;;;;;;;;;;;25.00;44.00;;;;;;6009504;28;30756;-50
2022/05/10 14:22:24;;;;;;;;;;;25.10;44.10;;;;;;6009679;28;19936;-50
2022/05/10 14:25:28;;;;;;;;;;;25.00;44.40;;;;;;5984835;28;19935;-54
2022/05/10 14:28:32;;;;;;;;;;;25.00;43.90;;;;;;5971858;28;22460;-54
2022/05/10 14:31:35;;;;;;;;;;;25.10;44.00;;;;;;6000331;28;23689;-48
2022/05/10 14:34:45;;;;;;;;;;;25.10;44.20;;;;;;6000985;28;19929;-49
2022/05/10 14:37:49;;;;;;;;;;;25.20;43.80;;;;;;5997470;28;20010;-51
2022/05/10 14:40:51;;;;;;;;;;;25.30;43.90;;;;;;6006939;28;21098;-50
2022/05/10 14:43:53;;;;;;;;;;;25.20;43.70;;;;;;6006315;28;27993;-53
2022/05/10 14:46:56;;;;;;;;;;;25.30;43.80;;;;;;5989817;28;19929;-52
2022/05/10 14:49:57;;;;;;;;;;;25.30;43.80;;;;;;6005273;28;19929;-49
2022/05/10 14:53:13;;;;;;;;;;;25.30;43.70;;;;;;5988243;28;19935;-53
2022/05/10 14:56:18;;;;;;;;;;;25.30;43.60;;;;;;5987032;28;19936;-52
2022/05/10 14:59:22;;;;;;;;;;;25.20;43.60;;;;;;5972232;28;19936;-50
2022/05/10 15:02:29;;;;;;;;;;;25.30;43.70;;;;;;5964273;28;19929;-50
2022/05/10 15:05:31;;;;;;;;;;;25.40;43.70;;;;;;5968472;28;19932;-51
2022/05/10 15:08:36;;;;;;;;;;;25.30;43.60;;;;;;5976784;28;19929;-52
2022/05/10 15:14:55;;;;;;;;;;;25.40;43.50;;;;;;5971189;28;19928;-47
2022/05/10 15:21:14;;;;;;;;;;;25.40;43.50;;;;;;6041862;28;19936;-49
2022/05/10 15:24:16;;;;;;;;;;;25.50;43.60;;;;;;6035393;28;19936;-50
2022/05/10 15:27:19;;;;;;;;;;;25.50;43.50;;;;;;6035467;28;19929;-51
2022/05/10 15:30:21;;;;;;;;;;;25.30;43.30;;;;;;6021680;28;42107;-54
2022/05/10 15:33:23;;;;;;;;;;;25.50;43.50;;;;;;6033100;28;19929;-53
2022/05/10 15:36:25;;;;;;;;;;;25.40;43.40;;;;;;6036782;28;37702;-51
2022/05/10 15:39:28;;;;;;;;;;;25.50;44.20;;;;;;6030157;28;19929;-55
2022/05/10 15:42:31;;;;;;;;;;;25.10;43.30;;;;;;6010504;28;19928;-52
2022/05/10 15:45:33;;;;;;;;;;;25.40;43.60;;;;;;6009592;28;19929;-53
2022/05/10 15:48:34;;;;;;;;;;;25.40;43.60;;;;;;6054578;28;19929;-49
2022/05/10 15:51:36;;;;;;;;;;;25.40;43.60;;;;;;6059831;28;23175;-52
2022/05/10 15:54:37;;;;;;;;;;;25.40;43.60;;;;;;6053223;28;20174;-54
2022/05/10 15:57:40;;;;;;;;;;;25.40;43.50;;;;;;6056712;28;19929;-49
2022/05/10 16:00:42;;;;;;;;;;;25.70;43.70;;;;;;6058297;28;19929;-52
2022/05/10 16:03:45;;;;;;;;;;;25.30;43.40;;;;;;6086537;28;21008;-51
2022/05/10 16:06:46;;;;;;;;;;;25.50;43.60;;;;;;6081076;28;19936;-50
2022/05/10 16:09:49;;;;;;;;;;;25.40;43.40;;;;;;6056985;28;19935;-56
2022/05/10 16:12:50;;;;;;;;;;;25.40;43.40;;;;;;6088632;28;19937;-49
2022/05/10 16:15:52;;;;;;;;;;;25.40;43.40;;;;;;6089410;28;19929;-50
2022/05/10 16:18:53;;;;;;;;;;;25.40;43.40;;;;;;6094035;28;19948;-48
2022/05/10 16:21:55;;;;;;;;;;;25.40;43.40;;;;;;6121868;28;20570;-58
2022/05/10 16:24:56;;;;;;;;;;;25.40;43.30;;;;;;6118249;28;20007;-49
2022/05/10 16:31:14;;;;;;;;;;;25.40;43.40;;;;;;6115420;28;20054;-50
2022/05/10 16:34:16;;;;;;;;;;;25.40;43.30;;;;;;6117631;28;20924;-47
2022/05/10 16:37:17;;;;;;;;;;;25.30;43.30;;;;;;6135126;28;19972;-51
2022/05/10 16:40:19;;;;;;;;;;;25.30;43.40;;;;;;6137238;28;21782;-52
2022/05/10 16:43:21;;;;;;;;;;;25.60;43.50;;;;;;6119404;28;19941;-56
2022/05/10 16:46:22;;;;;;;;;;;25.40;43.30;;;;;;6133763;28;19956;-50
2022/05/10 16:49:24;;;;;;;;;;;25.40;43.30;;;;;;6145771;28;19936;-51
2022/05/10 16:52:25;;;;;;;;;;;25.40;43.30;;;;;;6153104;28;20048;-51
2022/05/10 16:55:26;;;;;;;;;;;25.40;43.30;;;;;;6149758;28;19936;-49
2022/05/10 16:58:28;;;;;;;;;;;25.30;43.20;;;;;;6137881;28;20044;-51
2022/05/10 17:01:30;;;;;;;;;;;25.40;43.20;;;;;;6134951;28;19936;-50
2022/05/10 17:04:34;;;;;;;;;;;25.40;43.20;;;;;;6139450;28;19935;-59
2022/05/10 17:07:36;;;;;;;;;;;25.40;43.20;;;;;;6139389;28;19935;-54
2022/05/10 17:10:37;;;;;;;;;;;25.40;43.30;;;;;;6140540;28;19929;-53
2022/05/10 17:13:39;;;;;;;;;;;25.40;43.20;;;;;;6139427;28;19976;-48
2022/05/10 17:16:43;;;;;;;;;;;25.40;43.20;;;;;;6153983;28;19993;-50
2022/05/10 17:19:45;;;;;;;;;;;25.40;43.20;;;;;;6145377;28;19928;-50
2022/05/10 17:22:48;;;;;;;;;;;25.30;43.30;;;;;;6142558;28;19925;-51
2022/05/10 17:25:52;;;;;;;;;;;25.30;43.30;;;;;;6153479;28;19928;-51
2022/05/10 17:28:58;;;;;;;;;;;25.40;43.40;;;;;;6148303;28;20147;-54
2022/05/10 17:32:08;;;;;;;;;;;25.30;43.20;;;;;;6144808;28;19929;-53
2022/05/10 17:35:09;;;;;;;;;;;25.30;43.10;;;;;;6163451;28;20875;-53
2022/05/10 17:38:11;;;;;;;;;;;25.40;43.20;;;;;;6129865;28;21120;-53
2022/05/10 17:41:12;;;;;;;;;;;25.40;43.10;;;;;;6164588;28;19928;-51
2022/05/10 17:44:14;;;;;;;;;;;25.40;43.10;;;;;;6153027;28;20572;-55
2022/05/10 17:47:16;;;;;;;;;;;25.60;43.10;;;;;;6162809;28;19929;-64
2022/05/10 17:50:17;;;;;;;;;;;25.40;43.00;;;;;;6162540;28;20039;-52
2022/05/10 17:53:19;;;;;;;;;;;25.30;43.50;;;;;;6169660;28;19968;-53
2022/05/10 17:56:21;;;;;;;;;;;25.40;42.80;;;;;;6169481;28;19935;-53
2022/05/10 17:59:24;;;;;;;;;;;25.20;42.70;;;;;;6157469;28;19975;-54
2022/05/10 18:02:25;;;;;;;;;;;25.40;42.80;;;;;;6174473;28;19937;-52
2022/05/10 18:05:28;;;;;;;;;;;25.40;42.80;;;;;;6175899;28;19921;-52
2022/05/10 18:08:29;;;;;;;;;;;25.40;42.80;;;;;;6173368;28;19975;-54
2022/05/10 18:11:31;;;;;;;;;;;25.30;42.70;;;;;;6175449;28;19936;-54
2022/05/10 18:14:33;;;;;;;;;;;25.40;42.70;;;;;;6179831;28;20051;-51
2022/05/10 18:17:35;;;;;;;;;;;25.30;42.60;;;;;;6181010;28;19956;-54
2022/05/10 18:20:36;;;;;;;;;;;25.40;42.70;;;;;;6182450;28;19960;-53